sensor_id;sensor_type;location;lat;lon;timestamp;temperature;humidity
66013;DHT22;52783;50.502;8.190;2023-12-20T00:00:17;5.70;99.90
66013;DHT22;52783;50.502;8.190;2023-12-20T00:02:42;5.70;99.90
66013;DHT22;52783;50.502;8.190;2023-12-20T00:05:14;5.60;99.90
66013;DHT22;52783;50.502;8.190;2023-12-20T00:07:40;5.60;99.90
66013;DHT22;52783;50.502;8.190;2023-12-20T00:10:06;5.70;99.90
66013;DHT22;52783;50.502;8.190;2023-12-20T00:12:32;5.70;99.90
66013;DHT22;52783;50.502;8.190;2023-12-20T00:14:58;5.70;99.90
66013;DHT22;52783;50.502;8.190;2023-12-20T00:17:23;5.70;99.90
66013;DHT22;52783;50.502;8.190;2023-12-20T00:19:49;5.70;99.90
66013;DHT22;52783;50.502;8.190;2023-12-20T00:22:14;5.70;99.90
66013;DHT22;52783;50.502;8.190;2023-12-20T00:24:40;5.70;99.90
66013;DHT22;52783;50.502;8.190;2023-12-20T00:27:05;5.70;99.90
66013;DHT22;52783;50.502;8.190;2023-12-20T00:29:31;5.70;99.90
66013;DHT22;52783;50.502;8.190;2023-12-20T00:31:56;5.70;99.90
66013;DHT22;52783;50.502;8.190;2023-12-20T00:34:22;5.70;99.90
66013;DHT22;52783;50.502;8.190;2023-12-20T00:36:47;5.70;99.90
66013;DHT22;52783;50.502;8.190;2023-12-20T00:39:13;5.70;99.90
66013;DHT22;52783;50.502;8.190;2023-12-20T00:41:38;5.80;99.90
66013;DHT22;52783;50.502;8.190;2023-12-20T00:44:04;5.80;99.90
66013;DHT22;52783;50.502;8.190;2023-12-20T00:46:30;5.80;99.90
66013;DHT22;52783;50.502;8.190;2023-12-20T00:48:55;5.80;99.90
66013;DHT22;52783;50.502;8.190;2023-12-20T00:51:21;5.80;99.90
66013;DHT22;52783;50.502;8.190;2023-12-20T00:53:49;5.80;99.90
66013;DHT22;52783;50.502;8.190;2023-12-20T00:56:14;5.80;99.90
66013;DHT22;52783;50.502;8.190;2023-12-20T00:58:40;5.80;99.90
66013;DHT22;52783;50.502;8.190;2023-12-20T01:01:05;5.80;99.90
66013;DHT22;52783;50.502;8.190;2023-12-20T01:03:31;5.70;99.90
66013;DHT22;52783;50.502;8.190;2023-12-20T01:05:56;5.70;99.90
66013;DHT22;52783;50.502;8.190;2023-12-20T01:08:22;5.70;99.90
66013;DHT22;52783;50.502;8.190;2023-12-20T01:10:48;5.70;99.90
66013;DHT22;52783;50.502;8.190;2023-12-20T01:13:13;5.70;99.90
66013;DHT22;52783;50.502;8.190;2023-12-20T01:15:39;5.70;99.90
66013;DHT22;52783;50.502;8.190;2023-12-20T01:18:04;5.70;99.90
66013;DHT22;52783;50.502;8.190;2023-12-20T01:20:30;5.70;99.90
66013;DHT22;52783;50.502;8.190;2023-12-20T01:22:56;5.70;99.90
66013;DHT22;52783;50.502;8.190;2023-12-20T01:25:22;5.70;99.90
66013;DHT22;52783;50.502;8.190;2023-12-20T01:27:47;5.70;99.90
66013;DHT22;52783;50.502;8.190;2023-12-20T01:30:13;5.70;99.90
66013;DHT22;52783;50.502;8.190;2023-12-20T01:32:38;5.70;99.90
66013;DHT22;52783;50.502;8.190;2023-12-20T01:35:04;5.80;99.90
66013;DHT22;52783;50.502;8.190;2023-12-20T01:37:29;5.80;99.90
66013;DHT22;52783;50.502;8.190;2023-12-20T01:39:55;5.80;99.90
66013;DHT22;52783;50.502;8.190;2023-12-20T01:42:21;5.70;99.90
66013;DHT22;52783;50.502;8.190;2023-12-20T01:44:47;5.80;99.90
66013;DHT22;52783;50.502;8.190;2023-12-20T01:47:13;5.70;99.90
66013;DHT22;52783;50.502;8.190;2023-12-20T01:49:40;5.70;99.90
66013;DHT22;52783;50.502;8.190;2023-12-20T01:52:06;5.70;99.90
66013;DHT22;52783;50.502;8.190;2023-12-20T01:54:32;5.70;99.90
66013;DHT22;52783;50.502;8.190;2023-12-20T01:56:59;5.70;99.90
66013;DHT22;52783;50.502;8.190;2023-12-20T01:59:24;5.70;99.90
66013;DHT22;52783;50.502;8.190;2023-12-20T02:01:50;5.70;99.90
66013;DHT22;52783;50.502;8.190;2023-12-20T02:04:16;5.70;99.90
66013;DHT22;52783;50.502;8.190;2023-12-20T02:06:42;5.70;99.90
66013;DHT22;52783;50.502;8.190;2023-12-20T02:09:09;5.70;99.90
66013;DHT22;52783;50.502;8.190;2023-12-20T02:11:36;5.70;99.90
66013;DHT22;52783;50.502;8.190;2023-12-20T02:14:01;5.70;99.90
66013;DHT22;52783;50.502;8.190;2023-12-20T02:16:27;5.70;99.90
66013;DHT22;52783;50.502;8.190;2023-12-20T02:18:52;5.70;99.90
66013;DHT22;52783;50.502;8.190;2023-12-20T02:21:20;5.70;99.90
66013;DHT22;52783;50.502;8.190;2023-12-20T02:27:08;5.70;99.90
66013;DHT22;52783;50.502;8.190;2023-12-20T02:29:34;5.70;99.90
66013;DHT22;52783;50.502;8.190;2023-12-20T02:32:00;5.70;99.90
66013;DHT22;52783;50.502;8.190;2023-12-20T02:34:26;5.70;99.90
66013;DHT22;52783;50.502;8.190;2023-12-20T02:36:51;5.70;99.90
66013;DHT22;52783;50.502;8.190;2023-12-20T02:39:17;5.70;99.90
66013;DHT22;52783;50.502;8.190;2023-12-20T02:41:43;5.70;99.90
66013;DHT22;52783;50.502;8.190;2023-12-20T02:44:09;5.80;99.90
66013;DHT22;52783;50.502;8.190;2023-12-20T02:46:34;5.80;99.90
66013;DHT22;52783;50.502;8.190;2023-12-20T02:49:00;5.80;99.90
66013;DHT22;52783;50.502;8.190;2023-12-20T02:51:25;5.90;99.90
66013;DHT22;52783;50.502;8.190;2023-12-20T02:53:51;5.80;99.90
66013;DHT22;52783;50.502;8.190;2023-12-20T02:56:16;5.90;99.90
66013;DHT22;52783;50.502;8.190;2023-12-20T02:58:42;6.00;99.90
66013;DHT22;52783;50.502;8.190;2023-12-20T03:01:07;6.00;99.90
66013;DHT22;52783;50.502;8.190;2023-12-20T03:03:33;6.00;99.90
66013;DHT22;52783;50.502;8.190;2023-12-20T03:06:00;6.00;99.90
66013;DHT22;52783;50.502;8.190;2023-12-20T03:08:26;6.10;99.90
66013;DHT22;52783;50.502;8.190;2023-12-20T03:10:51;6.00;99.90
66013;DHT22;52783;50.502;8.190;2023-12-20T03:13:16;6.00;99.90
66013;DHT22;52783;50.502;8.190;2023-12-20T03:15:42;6.00;99.90
66013;DHT22;52783;50.502;8.190;2023-12-20T03:18:08;6.00;99.90
66013;DHT22;52783;50.502;8.190;2023-12-20T03:20:33;6.00;99.90
66013;DHT22;52783;50.502;8.190;2023-12-20T03:23:00;6.00;99.90
66013;DHT22;52783;50.502;8.190;2023-12-20T03:25:25;6.00;99.90
66013;DHT22;52783;50.502;8.190;2023-12-20T03:27:51;6.00;99.90
66013;DHT22;52783;50.502;8.190;2023-12-20T03:30:17;6.10;99.90
66013;DHT22;52783;50.502;8.190;2023-12-20T03:32:43;6.00;99.90
66013;DHT22;52783;50.502;8.190;2023-12-20T03:35:09;6.00;99.90
66013;DHT22;52783;50.502;8.190;2023-12-20T03:37:34;6.10;99.90
66013;DHT22;52783;50.502;8.190;2023-12-20T03:40:00;6.10;99.90
66013;DHT22;52783;50.502;8.190;2023-12-20T03:42:26;6.10;99.90
66013;DHT22;52783;50.502;8.190;2023-12-20T03:44:51;6.00;99.90
66013;DHT22;52783;50.502;8.190;2023-12-20T03:47:17;6.00;99.90
66013;DHT22;52783;50.502;8.190;2023-12-20T03:49:42;6.00;99.90
66013;DHT22;52783;50.502;8.190;2023-12-20T03:52:08;6.10;99.90
66013;DHT22;52783;50.502;8.190;2023-12-20T03:54:35;6.10;99.90
66013;DHT22;52783;50.502;8.190;2023-12-20T03:57:00;6.10;99.90
66013;DHT22;52783;50.502;8.190;2023-12-20T03:59:26;6.10;99.90
66013;DHT22;52783;50.502;8.190;2023-12-20T04:01:51;6.10;99.90
66013;DHT22;52783;50.502;8.190;2023-12-20T04:04:17;6.10;99.90
66013;DHT22;52783;50.502;8.190;2023-12-20T04:06:42;6.10;99.90
66013;DHT22;52783;50.502;8.190;2023-12-20T04:09:08;6.00;99.90
66013;DHT22;52783;50.502;8.190;2023-12-20T04:11:37;6.00;99.90
66013;DHT22;52783;50.502;8.190;2023-12-20T04:14:03;5.90;99.90
66013;DHT22;52783;50.502;8.190;2023-12-20T04:16:30;5.70;99.90
66013;DHT22;52783;50.502;8.190;2023-12-20T04:18:55;5.70;99.90
66013;DHT22;52783;50.502;8.190;2023-12-20T04:21:21;5.60;99.90
66013;DHT22;52783;50.502;8.190;2023-12-20T04:23:46;5.50;99.90
66013;DHT22;52783;50.502;8.190;2023-12-20T04:26:12;5.50;99.90
66013;DHT22;52783;50.502;8.190;2023-12-20T04:28:37;5.40;99.90
66013;DHT22;52783;50.502;8.190;2023-12-20T04:31:03;5.30;99.90
66013;DHT22;52783;50.502;8.190;2023-12-20T04:33:28;5.20;99.90
66013;DHT22;52783;50.502;8.190;2023-12-20T04:35:54;5.20;99.90
66013;DHT22;52783;50.502;8.190;2023-12-20T04:38:19;5.10;99.90
66013;DHT22;52783;50.502;8.190;2023-12-20T04:40:45;5.10;99.90
66013;DHT22;52783;50.502;8.190;2023-12-20T04:43:10;5.10;99.90
66013;DHT22;52783;50.502;8.190;2023-12-20T04:45:36;5.10;99.90
66013;DHT22;52783;50.502;8.190;2023-12-20T04:48:02;5.10;99.90
66013;DHT22;52783;50.502;8.190;2023-12-20T04:50:28;5.00;99.90
66013;DHT22;52783;50.502;8.190;2023-12-20T04:52:53;5.00;99.90
66013;DHT22;52783;50.502;8.190;2023-12-20T04:55:19;5.00;99.90
66013;DHT22;52783;50.502;8.190;2023-12-20T04:57:44;5.10;99.90
66013;DHT22;52783;50.502;8.190;2023-12-20T05:00:10;5.10;99.90
66013;DHT22;52783;50.502;8.190;2023-12-20T05:02:36;5.10;99.90
66013;DHT22;52783;50.502;8.190;2023-12-20T05:05:02;5.10;99.90
66013;DHT22;52783;50.502;8.190;2023-12-20T05:07:27;5.10;99.90
66013;DHT22;52783;50.502;8.190;2023-12-20T05:09:53;5.10;99.90
66013;DHT22;52783;50.502;8.190;2023-12-20T05:12:19;5.10;99.90
66013;DHT22;52783;50.502;8.190;2023-12-20T05:14:45;5.00;99.90
66013;DHT22;52783;50.502;8.190;2023-12-20T05:17:11;5.10;99.90
66013;DHT22;52783;50.502;8.190;2023-12-20T05:19:36;5.10;99.90
66013;DHT22;52783;50.502;8.190;2023-12-20T05:22:02;5.10;99.90
66013;DHT22;52783;50.502;8.190;2023-12-20T05:24:28;5.10;99.90
66013;DHT22;52783;50.502;8.190;2023-12-20T05:26:54;5.10;99.90
66013;DHT22;52783;50.502;8.190;2023-12-20T05:29:19;5.00;99.90
66013;DHT22;52783;50.502;8.190;2023-12-20T05:31:45;5.00;99.90
66013;DHT22;52783;50.502;8.190;2023-12-20T05:34:10;5.00;99.90
66013;DHT22;52783;50.502;8.190;2023-12-20T05:36:36;5.00;99.90
66013;DHT22;52783;50.502;8.190;2023-12-20T05:39:02;5.00;99.90
66013;DHT22;52783;50.502;8.190;2023-12-20T05:41:29;5.00;99.90
66013;DHT22;52783;50.502;8.190;2023-12-20T05:43:55;5.00;99.90
66013;DHT22;52783;50.502;8.190;2023-12-20T05:46:20;5.00;99.90
66013;DHT22;52783;50.502;8.190;2023-12-20T05:48:47;5.00;99.90
66013;DHT22;52783;50.502;8.190;2023-12-20T05:51:12;5.00;99.90
66013;DHT22;52783;50.502;8.190;2023-12-20T05:53:38;5.10;99.90
66013;DHT22;52783;50.502;8.190;2023-12-20T05:56:04;5.10;99.90
66013;DHT22;52783;50.502;8.190;2023-12-20T05:58:29;5.10;99.90
66013;DHT22;52783;50.502;8.190;2023-12-20T06:00:55;5.10;99.90
66013;DHT22;52783;50.502;8.190;2023-12-20T06:03:20;5.10;99.90
66013;DHT22;52783;50.502;8.190;2023-12-20T06:05:46;5.20;99.90
66013;DHT22;52783;50.502;8.190;2023-12-20T06:08:11;5.20;99.90
66013;DHT22;52783;50.502;8.190;2023-12-20T06:10:37;5.20;99.90
66013;DHT22;52783;50.502;8.190;2023-12-20T06:13:03;5.20;99.90
66013;DHT22;52783;50.502;8.190;2023-12-20T06:15:30;5.20;99.90
66013;DHT22;52783;50.502;8.190;2023-12-20T06:17:55;5.10;99.90
66013;DHT22;52783;50.502;8.190;2023-12-20T06:20:21;5.20;99.90
66013;DHT22;52783;50.502;8.190;2023-12-20T06:22:46;5.30;99.90
66013;DHT22;52783;50.502;8.190;2023-12-20T06:25:12;5.20;99.90
66013;DHT22;52783;50.502;8.190;2023-12-20T06:27:38;5.20;99.90
66013;DHT22;52783;50.502;8.190;2023-12-20T06:30:03;5.20;99.90
66013;DHT22;52783;50.502;8.190;2023-12-20T06:32:29;5.20;99.90
66013;DHT22;52783;50.502;8.190;2023-12-20T06:34:55;5.20;99.90
66013;DHT22;52783;50.502;8.190;2023-12-20T06:37:21;5.20;99.90
66013;DHT22;52783;50.502;8.190;2023-12-20T06:39:46;5.20;99.90
66013;DHT22;52783;50.502;8.190;2023-12-20T06:42:13;5.20;99.90
66013;DHT22;52783;50.502;8.190;2023-12-20T06:44:38;5.10;99.90
66013;DHT22;52783;50.502;8.190;2023-12-20T06:47:04;5.10;99.90
66013;DHT22;52783;50.502;8.190;2023-12-20T06:49:30;5.10;99.90
66013;DHT22;52783;50.502;8.190;2023-12-20T06:51:55;5.10;99.90
66013;DHT22;52783;50.502;8.190;2023-12-20T06:54:21;5.10;99.90
66013;DHT22;52783;50.502;8.190;2023-12-20T06:56:46;5.10;99.90
66013;DHT22;52783;50.502;8.190;2023-12-20T06:59:12;5.20;99.90
66013;DHT22;52783;50.502;8.190;2023-12-20T07:01:37;5.20;99.90
66013;DHT22;52783;50.502;8.190;2023-12-20T07:04:03;5.20;99.90
66013;DHT22;52783;50.502;8.190;2023-12-20T07:06:29;5.20;99.90
66013;DHT22;52783;50.502;8.190;2023-12-20T07:08:54;5.10;99.90
66013;DHT22;52783;50.502;8.190;2023-12-20T07:11:20;5.20;99.90
66013;DHT22;52783;50.502;8.190;2023-12-20T07:13:45;5.20;99.90
66013;DHT22;52783;50.502;8.190;2023-12-20T07:16:11;5.20;99.90
66013;DHT22;52783;50.502;8.190;2023-12-20T07:18:37;5.20;99.90
66013;DHT22;52783;50.502;8.190;2023-12-20T07:21:03;5.20;99.90
66013;DHT22;52783;50.502;8.190;2023-12-20T07:23:28;5.20;99.90
66013;DHT22;52783;50.502;8.190;2023-12-20T07:25:54;5.10;99.90
66013;DHT22;52783;50.502;8.190;2023-12-20T07:28:20;5.20;99.90
66013;DHT22;52783;50.502;8.190;2023-12-20T07:30:45;5.20;99.90
66013;DHT22;52783;50.502;8.190;2023-12-20T07:33:11;5.20;99.90
66013;DHT22;52783;50.502;8.190;2023-12-20T07:35:37;5.10;99.90
66013;DHT22;52783;50.502;8.190;2023-12-20T07:38:03;5.20;99.90
66013;DHT22;52783;50.502;8.190;2023-12-20T07:40:29;5.10;99.90
66013;DHT22;52783;50.502;8.190;2023-12-20T07:42:54;5.20;99.90
66013;DHT22;52783;50.502;8.190;2023-12-20T07:45:20;5.10;99.90
66013;DHT22;52783;50.502;8.190;2023-12-20T07:47:45;5.10;99.90
66013;DHT22;52783;50.502;8.190;2023-12-20T07:50:11;5.10;99.90
66013;DHT22;52783;50.502;8.190;2023-12-20T07:52:36;5.10;99.90
66013;DHT22;52783;50.502;8.190;2023-12-20T07:55:02;5.20;99.90
66013;DHT22;52783;50.502;8.190;2023-12-20T07:57:29;5.30;99.90
66013;DHT22;52783;50.502;8.190;2023-12-20T07:59:55;5.20;99.90
66013;DHT22;52783;50.502;8.190;2023-12-20T08:02:21;5.20;99.90
66013;DHT22;52783;50.502;8.190;2023-12-20T08:04:46;5.10;99.90
66013;DHT22;52783;50.502;8.190;2023-12-20T08:07:12;5.20;99.90
66013;DHT22;52783;50.502;8.190;2023-12-20T08:09:37;5.10;99.90
66013;DHT22;52783;50.502;8.190;2023-12-20T08:12:03;5.10;99.90
66013;DHT22;52783;50.502;8.190;2023-12-20T08:14:29;5.20;99.90
66013;DHT22;52783;50.502;8.190;2023-12-20T08:16:54;5.20;99.90
66013;DHT22;52783;50.502;8.190;2023-12-20T08:19:20;5.20;99.90
66013;DHT22;52783;50.502;8.190;2023-12-20T08:21:45;5.20;99.90
66013;DHT22;52783;50.502;8.190;2023-12-20T08:24:11;5.20;99.90
66013;DHT22;52783;50.502;8.190;2023-12-20T08:26:36;5.30;99.90
66013;DHT22;52783;50.502;8.190;2023-12-20T08:29:02;5.20;99.90
66013;DHT22;52783;50.502;8.190;2023-12-20T08:31:27;5.30;99.90
66013;DHT22;52783;50.502;8.190;2023-12-20T08:33:53;5.30;99.90
66013;DHT22;52783;50.502;8.190;2023-12-20T08:36:19;5.30;99.90
66013;DHT22;52783;50.502;8.190;2023-12-20T08:38:46;5.30;99.90
66013;DHT22;52783;50.502;8.190;2023-12-20T08:41:12;5.30;99.90
66013;DHT22;52783;50.502;8.190;2023-12-20T08:43:38;5.30;99.90
66013;DHT22;52783;50.502;8.190;2023-12-20T08:46:05;5.30;99.90
66013;DHT22;52783;50.502;8.190;2023-12-20T08:48:31;5.30;99.90
66013;DHT22;52783;50.502;8.190;2023-12-20T08:50:56;5.30;99.90
66013;DHT22;52783;50.502;8.190;2023-12-20T08:53:22;5.30;99.90
66013;DHT22;52783;50.502;8.190;2023-12-20T08:55:48;5.30;99.90
66013;DHT22;52783;50.502;8.190;2023-12-20T08:58:14;5.30;99.90
66013;DHT22;52783;50.502;8.190;2023-12-20T09:00:39;5.30;99.90
66013;DHT22;52783;50.502;8.190;2023-12-20T09:03:05;5.30;99.90
66013;DHT22;52783;50.502;8.190;2023-12-20T09:05:30;5.30;99.90
66013;DHT22;52783;50.502;8.190;2023-12-20T09:07:56;5.40;99.90
66013;DHT22;52783;50.502;8.190;2023-12-20T09:10:22;5.40;99.90
66013;DHT22;52783;50.502;8.190;2023-12-20T09:12:49;5.40;99.90
66013;DHT22;52783;50.502;8.190;2023-12-20T09:15:15;5.40;99.90
66013;DHT22;52783;50.502;8.190;2023-12-20T09:17:40;5.40;99.90
66013;DHT22;52783;50.502;8.190;2023-12-20T09:20:07;5.40;99.90
66013;DHT22;52783;50.502;8.190;2023-12-20T09:22:33;5.40;99.90
66013;DHT22;52783;50.502;8.190;2023-12-20T09:24:59;5.40;99.90
66013;DHT22;52783;50.502;8.190;2023-12-20T09:27:25;5.50;99.90
66013;DHT22;52783;50.502;8.190;2023-12-20T09:29:51;5.40;99.90
66013;DHT22;52783;50.502;8.190;2023-12-20T09:32:17;5.40;99.90
66013;DHT22;52783;50.502;8.190;2023-12-20T09:34:42;5.50;99.90
66013;DHT22;52783;50.502;8.190;2023-12-20T09:37:08;5.50;99.90
66013;DHT22;52783;50.502;8.190;2023-12-20T09:39:33;5.60;99.90
66013;DHT22;52783;50.502;8.190;2023-12-20T09:42:03;5.50;99.90
66013;DHT22;52783;50.502;8.190;2023-12-20T09:44:30;5.50;99.90
66013;DHT22;52783;50.502;8.190;2023-12-20T09:46:57;5.50;99.90
66013;DHT22;52783;50.502;8.190;2023-12-20T09:49:22;5.50;99.90
66013;DHT22;52783;50.502;8.190;2023-12-20T09:51:50;5.60;99.90
66013;DHT22;52783;50.502;8.190;2023-12-20T09:54:19;5.60;99.90
66013;DHT22;52783;50.502;8.190;2023-12-20T09:56:46;5.70;99.90
66013;DHT22;52783;50.502;8.190;2023-12-20T09:59:12;5.70;99.90
66013;DHT22;52783;50.502;8.190;2023-12-20T10:01:39;5.60;99.90
66013;DHT22;52783;50.502;8.190;2023-12-20T10:04:06;5.70;99.90
66013;DHT22;52783;50.502;8.190;2023-12-20T10:06:38;5.80;99.90
66013;DHT22;52783;50.502;8.190;2023-12-20T10:09:04;5.80;99.90
66013;DHT22;52783;50.502;8.190;2023-12-20T10:11:30;5.80;99.90
66013;DHT22;52783;50.502;8.190;2023-12-20T10:14:01;5.80;99.90
66013;DHT22;52783;50.502;8.190;2023-12-20T10:16:28;5.80;99.90
66013;DHT22;52783;50.502;8.190;2023-12-20T10:18:54;5.70;99.90
66013;DHT22;52783;50.502;8.190;2023-12-20T10:21:20;5.90;99.90
66013;DHT22;52783;50.502;8.190;2023-12-20T10:23:46;5.80;99.90
66013;DHT22;52783;50.502;8.190;2023-12-20T10:26:22;5.90;99.90
66013;DHT22;52783;50.502;8.190;2023-12-20T10:28:54;6.00;99.90
66013;DHT22;52783;50.502;8.190;2023-12-20T10:31:27;6.00;99.90
66013;DHT22;52783;50.502;8.190;2023-12-20T10:33:55;6.00;99.90
66013;DHT22;52783;50.502;8.190;2023-12-20T10:36:20;6.00;99.90
66013;DHT22;52783;50.502;8.190;2023-12-20T10:38:50;6.00;99.90
66013;DHT22;52783;50.502;8.190;2023-12-20T10:41:19;5.90;99.90
66013;DHT22;52783;50.502;8.190;2023-12-20T10:43:51;6.10;99.90
66013;DHT22;52783;50.502;8.190;2023-12-20T10:46:17;6.10;99.90
66013;DHT22;52783;50.502;8.190;2023-12-20T10:48:44;6.10;99.90
66013;DHT22;52783;50.502;8.190;2023-12-20T10:51:11;6.10;99.90
66013;DHT22;52783;50.502;8.190;2023-12-20T10:53:37;6.10;99.90
66013;DHT22;52783;50.502;8.190;2023-12-20T10:56:06;6.10;99.90
66013;DHT22;52783;50.502;8.190;2023-12-20T10:58:33;6.10;99.90
66013;DHT22;52783;50.502;8.190;2023-12-20T11:01:01;6.20;99.90
66013;DHT22;52783;50.502;8.190;2023-12-20T11:03:33;6.10;99.90
66013;DHT22;52783;50.502;8.190;2023-12-20T11:06:10;6.10;99.90
66013;DHT22;52783;50.502;8.190;2023-12-20T11:09:12;6.10;99.90
66013;DHT22;52783;50.502;8.190;2023-12-20T11:12:07;6.10;99.90
66013;DHT22;52783;50.502;8.190;2023-12-20T11:17:10;6.10;99.90
66013;DHT22;52783;50.502;8.190;2023-12-20T11:22:29;6.10;99.90
66013;DHT22;52783;50.502;8.190;2023-12-20T11:24:59;6.10;99.90
66013;DHT22;52783;50.502;8.190;2023-12-20T11:27:27;6.20;99.90
66013;DHT22;52783;50.502;8.190;2023-12-20T11:29:55;6.20;99.90
66013;DHT22;52783;50.502;8.190;2023-12-20T11:34:51;6.20;99.90
66013;DHT22;52783;50.502;8.190;2023-12-20T11:37:19;6.20;99.90
66013;DHT22;52783;50.502;8.190;2023-12-20T11:39:45;6.20;99.90
66013;DHT22;52783;50.502;8.190;2023-12-20T11:42:11;6.20;99.90
66013;DHT22;52783;50.502;8.190;2023-12-20T11:44:37;6.10;99.90
66013;DHT22;52783;50.502;8.190;2023-12-20T11:47:03;6.20;99.90
66013;DHT22;52783;50.502;8.190;2023-12-20T11:49:28;6.20;99.90
66013;DHT22;52783;50.502;8.190;2023-12-20T11:51:56;6.20;99.90
66013;DHT22;52783;50.502;8.190;2023-12-20T11:54:22;6.10;99.90
66013;DHT22;52783;50.502;8.190;2023-12-20T11:56:48;6.10;99.90
66013;DHT22;52783;50.502;8.190;2023-12-20T11:59:13;6.10;99.90
66013;DHT22;52783;50.502;8.190;2023-12-20T12:01:39;6.10;99.90
66013;DHT22;52783;50.502;8.190;2023-12-20T12:04:06;6.10;99.90
66013;DHT22;52783;50.502;8.190;2023-12-20T12:06:32;6.10;99.90
66013;DHT22;52783;50.502;8.190;2023-12-20T12:08:57;6.10;99.90
66013;DHT22;52783;50.502;8.190;2023-12-20T12:11:23;6.10;99.90
66013;DHT22;52783;50.502;8.190;2023-12-20T12:13:49;6.10;99.90
66013;DHT22;52783;50.502;8.190;2023-12-20T12:16:18;6.10;99.90
66013;DHT22;52783;50.502;8.190;2023-12-20T12:18:54;6.10;99.90
66013;DHT22;52783;50.502;8.190;2023-12-20T12:21:20;6.00;99.90
66013;DHT22;52783;50.502;8.190;2023-12-20T12:23:46;6.10;99.90
66013;DHT22;52783;50.502;8.190;2023-12-20T12:26:11;6.10;99.90
66013;DHT22;52783;50.502;8.190;2023-12-20T12:28:40;6.10;99.90
66013;DHT22;52783;50.502;8.190;2023-12-20T12:31:06;6.00;99.90
66013;DHT22;52783;50.502;8.190;2023-12-20T12:33:31;6.00;99.90
66013;DHT22;52783;50.502;8.190;2023-12-20T12:35:57;6.00;99.90
66013;DHT22;52783;50.502;8.190;2023-12-20T12:38:24;5.90;99.90
66013;DHT22;52783;50.502;8.190;2023-12-20T12:40:50;5.90;99.90
66013;DHT22;52783;50.502;8.190;2023-12-20T12:43:15;5.80;99.90
66013;DHT22;52783;50.502;8.190;2023-12-20T12:45:41;5.80;99.90
66013;DHT22;52783;50.502;8.190;2023-12-20T12:48:07;5.90;99.90
66013;DHT22;52783;50.502;8.190;2023-12-20T12:50:32;5.80;99.90
66013;DHT22;52783;50.502;8.190;2023-12-20T12:52:58;5.90;99.90
66013;DHT22;52783;50.502;8.190;2023-12-20T12:55:23;5.90;99.90
66013;DHT22;52783;50.502;8.190;2023-12-20T12:57:49;5.80;99.90
66013;DHT22;52783;50.502;8.190;2023-12-20T13:00:15;5.90;99.90
66013;DHT22;52783;50.502;8.190;2023-12-20T13:02:40;5.80;99.90
66013;DHT22;52783;50.502;8.190;2023-12-20T13:05:09;5.80;99.90
66013;DHT22;52783;50.502;8.190;2023-12-20T13:07:34;5.80;99.90
66013;DHT22;52783;50.502;8.190;2023-12-20T13:10:01;5.80;99.90
66013;DHT22;52783;50.502;8.190;2023-12-20T13:12:26;5.80;99.90
66013;DHT22;52783;50.502;8.190;2023-12-20T13:14:52;5.80;99.90
66013;DHT22;52783;50.502;8.190;2023-12-20T13:17:17;5.80;99.90
66013;DHT22;52783;50.502;8.190;2023-12-20T13:19:43;5.80;99.90
66013;DHT22;52783;50.502;8.190;2023-12-20T13:22:08;5.80;99.90
66013;DHT22;52783;50.502;8.190;2023-12-20T13:24:34;5.90;99.90
66013;DHT22;52783;50.502;8.190;2023-12-20T13:27:00;5.90;99.90
66013;DHT22;52783;50.502;8.190;2023-12-20T13:29:25;5.90;99.90
66013;DHT22;52783;50.502;8.190;2023-12-20T13:31:52;5.90;99.90
66013;DHT22;52783;50.502;8.190;2023-12-20T13:34:18;5.80;99.90
66013;DHT22;52783;50.502;8.190;2023-12-20T13:36:44;5.90;99.90
66013;DHT22;52783;50.502;8.190;2023-12-20T13:39:15;5.80;99.90
66013;DHT22;52783;50.502;8.190;2023-12-20T13:41:40;5.90;99.90
66013;DHT22;52783;50.502;8.190;2023-12-20T13:44:06;5.80;99.90
66013;DHT22;52783;50.502;8.190;2023-12-20T13:46:32;5.90;99.90
66013;DHT22;52783;50.502;8.190;2023-12-20T13:48:57;5.80;99.90
66013;DHT22;52783;50.502;8.190;2023-12-20T13:51:23;5.80;99.90
66013;DHT22;52783;50.502;8.190;2023-12-20T13:53:48;5.90;99.90
66013;DHT22;52783;50.502;8.190;2023-12-20T13:56:17;5.80;99.90
66013;DHT22;52783;50.502;8.190;2023-12-20T13:58:43;5.80;99.90
66013;DHT22;52783;50.502;8.190;2023-12-20T14:01:09;5.80;99.90
66013;DHT22;52783;50.502;8.190;2023-12-20T14:03:36;5.80;99.90
66013;DHT22;52783;50.502;8.190;2023-12-20T14:06:01;5.80;99.90
66013;DHT22;52783;50.502;8.190;2023-12-20T14:08:27;5.80;99.90
66013;DHT22;52783;50.502;8.190;2023-12-20T14:10:53;5.80;99.90
66013;DHT22;52783;50.502;8.190;2023-12-20T14:13:19;5.80;99.90
66013;DHT22;52783;50.502;8.190;2023-12-20T14:15:44;5.90;99.90
66013;DHT22;52783;50.502;8.190;2023-12-20T14:18:10;5.80;99.90
66013;DHT22;52783;50.502;8.190;2023-12-20T14:20:37;5.90;99.90
66013;DHT22;52783;50.502;8.190;2023-12-20T14:23:05;5.80;99.90
66013;DHT22;52783;50.502;8.190;2023-12-20T14:25:30;5.80;99.90
66013;DHT22;52783;50.502;8.190;2023-12-20T14:27:56;5.80;99.90
66013;DHT22;52783;50.502;8.190;2023-12-20T14:30:22;5.80;99.90
66013;DHT22;52783;50.502;8.190;2023-12-20T14:32:48;5.90;99.90
66013;DHT22;52783;50.502;8.190;2023-12-20T14:35:14;5.80;99.90
66013;DHT22;52783;50.502;8.190;2023-12-20T14:37:40;5.80;99.90
66013;DHT22;52783;50.502;8.190;2023-12-20T14:40:09;5.80;99.90
66013;DHT22;52783;50.502;8.190;2023-12-20T14:42:45;5.80;99.90
66013;DHT22;52783;50.502;8.190;2023-12-20T14:45:11;5.80;99.90
66013;DHT22;52783;50.502;8.190;2023-12-20T14:47:38;5.90;99.90
66013;DHT22;52783;50.502;8.190;2023-12-20T14:50:04;5.80;99.90
66013;DHT22;52783;50.502;8.190;2023-12-20T14:52:32;5.90;99.90
66013;DHT22;52783;50.502;8.190;2023-12-20T14:54:59;5.90;99.90
66013;DHT22;52783;50.502;8.190;2023-12-20T14:57:25;5.90;99.90
66013;DHT22;52783;50.502;8.190;2023-12-20T14:59:50;5.90;99.90
66013;DHT22;52783;50.502;8.190;2023-12-20T15:02:16;5.90;99.90
66013;DHT22;52783;50.502;8.190;2023-12-20T15:04:41;5.90;99.90
66013;DHT22;52783;50.502;8.190;2023-12-20T15:07:07;5.90;99.90
66013;DHT22;52783;50.502;8.190;2023-12-20T15:09:32;5.90;99.90
66013;DHT22;52783;50.502;8.190;2023-12-20T15:11:58;5.90;99.90
66013;DHT22;52783;50.502;8.190;2023-12-20T15:14:23;5.80;99.90
66013;DHT22;52783;50.502;8.190;2023-12-20T15:16:49;5.90;99.90
66013;DHT22;52783;50.502;8.190;2023-12-20T15:19:15;5.90;99.90
66013;DHT22;52783;50.502;8.190;2023-12-20T15:21:41;5.90;99.90
66013;DHT22;52783;50.502;8.190;2023-12-20T15:24:08;5.90;99.90
66013;DHT22;52783;50.502;8.190;2023-12-20T15:26:45;5.90;99.90
66013;DHT22;52783;50.502;8.190;2023-12-20T15:29:12;5.80;99.90
66013;DHT22;52783;50.502;8.190;2023-12-20T15:31:42;5.80;99.90
66013;DHT22;52783;50.502;8.190;2023-12-20T15:34:08;5.80;99.90
66013;DHT22;52783;50.502;8.190;2023-12-20T15:36:34;5.80;99.90
66013;DHT22;52783;50.502;8.190;2023-12-20T15:38:59;5.80;99.90
66013;DHT22;52783;50.502;8.190;2023-12-20T15:41:25;5.90;99.90
66013;DHT22;52783;50.502;8.190;2023-12-20T15:43:50;5.80;99.90
66013;DHT22;52783;50.502;8.190;2023-12-20T15:49:38;5.90;99.90
66013;DHT22;52783;50.502;8.190;2023-12-20T15:55:25;5.90;99.90